»·PEaware :: N416JK KMOD-KBAM

N416JK :: KMOD-KBAM

FLIGHT INFORMATION

Flight Status: Arrived
Operator: Privately registered:
United States
More flights under this callsign
Pilot: John K. (4202)
Aircraft: Unknown
(EPIC)
More flights by this aircraft type
Origin: KMOD Modesto City-Co-Sham
United States
Destination: KBAM Battle Mountain
United States
More flights between these airports :: More routes between these airports
Route: +MOD V113 FMG V6 CUTVA
File this flight plan on PilotEdge
Remarks:
Altitude:
(Current/Filed)
15,000ft
Speed:
(Current/Filed)
280kts
Departed: 09-Apr-20 07:51 AM
Arrived: 09-Apr-20 09:04 AM
Distance/Time
Traveled:
261nm/1:13
Distance/Time
To Go:
Arrived

Flight Plot

Page will automatically refresh every two minutes.

Flight plan parsing failed; only flown route is shown


Map Options




Map Legend


Flown Route
Filed Route
Departure Airport
Arrival Airport
Navaid (VOR, NDB)
Fix

Horizontal Profiles

Position Reports

Time Latitude Longitude Heading Altitude Ground
Speed
09-Apr-20 07:40 37.627331 -120.965171 91 101ft 0kts
09-Apr-20 07:41 37.627331 -120.965171 91 101ft 0kts
09-Apr-20 07:42 37.627331 -120.965171 91 101ft 0kts
09-Apr-20 07:43 37.627331 -120.965171 91 101ft 0kts
09-Apr-20 07:44 37.627331 -120.965171 91 101ft 0kts
09-Apr-20 07:45 37.627331 -120.965171 91 101ft 0kts
09-Apr-20 07:46 37.627331 -120.965171 91 101ft 0kts
09-Apr-20 07:47 37.628865 -120.964581 39 101ft 0kts
09-Apr-20 07:48 37.628865 -120.964581 39 101ft 0kts
09-Apr-20 07:49 37.628865 -120.964581 39 101ft 0kts
09-Apr-20 07:50 37.622790 -120.951610 124 266ft 135kts
09-Apr-20 07:51 37.625140 -120.902790 34 2539ft 203kts
09-Apr-20 07:52 37.665992 -120.919334 309 4838ft 218kts
09-Apr-20 07:53 37.692080 -120.961954 340 6320ft 224kts
09-Apr-20 07:54 37.747502 -120.970985 357 7965ft 240kts
09-Apr-20 07:55 37.815554 -120.978889 357 9081ft 250kts
09-Apr-20 07:56 37.883989 -120.987386 357 10179ft 251kts
09-Apr-20 07:57 37.952134 -120.992787 0 11278ft 246kts
09-Apr-20 07:58 38.019501 -120.998678 0 12377ft 246kts
09-Apr-20 07:59 38.083202 -120.989502 43 13472ft 234kts
09-Apr-20 08:00 38.128366 -120.933014 44 14568ft 228kts
09-Apr-20 08:01 38.172991 -120.874946 45 14993ft 243kts
09-Apr-20 08:02 38.220564 -120.812420 45 15000ft 254kts
09-Apr-20 08:03 38.269840 -120.747463 45 14991ft 256kts
09-Apr-20 08:04 38.318593 -120.682969 45 14971ft 258kts
09-Apr-20 08:05 38.367718 -120.617747 45 14962ft 258kts
09-Apr-20 08:06 38.417102 -120.552048 45 14961ft 264kts
09-Apr-20 08:07 38.468443 -120.483711 45 14959ft 269kts
09-Apr-20 08:08 38.519834 -120.415174 45 14959ft 271kts
09-Apr-20 08:09 38.571222 -120.346493 45 14980ft 272kts
09-Apr-20 08:10 38.622844 -120.277346 45 14983ft 274kts
09-Apr-20 08:11 38.688322 -120.227017 28 14947ft 278kts
09-Apr-20 08:12 38.755907 -120.181673 28 14945ft 279kts
09-Apr-20 08:13 38.823288 -120.136633 31 14943ft 274kts
09-Apr-20 08:14 38.889401 -120.092106 31 14993ft 269kts
09-Apr-20 08:15 38.955485 -120.047574 31 14996ft 269kts
09-Apr-20 08:16 39.020951 -120.003324 31 14995ft 269kts
09-Apr-20 08:17 39.086263 -119.959114 31 14994ft 269kts
09-Apr-20 08:18 39.151005 -119.915252 31 15012ft 268kts
09-Apr-20 08:19 39.215386 -119.871965 31 15019ft 269kts
09-Apr-20 08:20 39.279653 -119.828357 32 15018ft 269kts
09-Apr-20 08:21 39.344895 -119.783891 31 15018ft 270kts
09-Apr-20 08:22 39.409798 -119.739579 32 14998ft 270kts
09-Apr-20 08:23 39.475766 -119.694387 32 14998ft 270kts
09-Apr-20 08:24 39.537362 -119.643938 53 14998ft 264kts
09-Apr-20 08:25 39.580327 -119.568395 55 15003ft 265kts
09-Apr-20 08:26 39.623047 -119.491879 56 15002ft 266kts
09-Apr-20 08:27 39.666315 -119.414118 56 15001ft 266kts
09-Apr-20 08:28 39.708940 -119.337312 56 15000ft 266kts
09-Apr-20 08:29 39.751549 -119.260148 56 14999ft 265kts
09-Apr-20 08:30 39.793096 -119.184876 54 14998ft 268kts
09-Apr-20 08:31 39.836723 -119.105751 54 15015ft 269kts
09-Apr-20 08:32 39.879707 -119.027630 54 15015ft 269kts
09-Apr-20 08:33 39.922672 -118.949307 54 15014ft 269kts
09-Apr-20 08:34 39.965778 -118.870972 55 15021ft 270kts
09-Apr-20 08:35 40.009032 -118.792237 55 15002ft 270kts
09-Apr-20 08:36 40.052629 -118.712329 56 15001ft 269kts
09-Apr-20 08:37 40.095391 -118.633546 56 15000ft 268kts
09-Apr-20 08:38 40.132618 -118.551332 69 15000ft 267kts
09-Apr-20 08:39 40.157370 -118.461602 69 14998ft 267kts
09-Apr-20 08:40 40.182537 -118.370112 69 14998ft 267kts
09-Apr-20 08:41 40.207287 -118.279852 69 14997ft 266kts
09-Apr-20 08:42 40.231843 -118.190111 70 14996ft 266kts
09-Apr-20 08:43 40.256356 -118.099816 69 14993ft 266kts
09-Apr-20 08:44 40.280997 -118.009095 69 14995ft 270kts
09-Apr-20 08:45 40.305923 -117.916885 69 14977ft 269kts
09-Apr-20 08:46 40.330728 -117.826203 69 13240ft 268kts
09-Apr-20 08:47 40.355248 -117.735349 71 11472ft 271kts
09-Apr-20 08:48 40.379004 -117.646488 71 10980ft 244kts
09-Apr-20 08:49 40.400750 -117.567050 70 10980ft 228kts
09-Apr-20 08:50 40.422763 -117.490478 70 10989ft 222kts
09-Apr-20 08:51 40.444179 -117.416307 70 10989ft 219kts
09-Apr-20 08:52 40.465463 -117.342495 70 10989ft 218kts
09-Apr-20 08:53 40.487527 -117.265801 70 10044ft 239kts
09-Apr-20 08:54 40.511291 -117.182885 69 8547ft 247kts
09-Apr-20 08:55 40.534490 -117.101659 68 7495ft 232kts
09-Apr-20 08:56 40.555567 -117.027661 67 6396ft 211kts
09-Apr-20 08:57 40.575677 -116.956950 67 5793ft 209kts
09-Apr-20 08:58 40.580592 -116.887665 91 5747ft 169kts
09-Apr-20 08:59 40.588409 -116.837679 64 5751ft 139kts
09-Apr-20 09:00 40.612247 -116.815974 333 5390ft 132kts
09-Apr-20 09:01 40.614842 -116.853543 225 4793ft 121kts
09-Apr-20 09:02 40.599225 -116.876712 227 4536ft 64kts
09-Apr-20 09:03 40.598968 -116.877224 47 4536ft 25kts
09-Apr-20 09:04 40.601506 -116.875314 9 4536ft 0kts
09-Apr-20 09:05 40.605559 -116.873836 11 4536ft 15kts
09-Apr-20 09:06 40.607514 -116.873969 149 4536ft 0kts

Navigation Log

Ident Type
Flight plan parsing failed, navigation log unavailable